sensor_id;sensor_type;location;lat;lon;timestamp;temperature;humidity
67354;SHT30;54238;52.278;21.056;2023-05-02T00:01:32;12.06;46.17
67354;SHT30;54238;52.278;21.056;2023-05-02T00:03:59;12.04;46.23
67354;SHT30;54238;52.278;21.056;2023-05-02T00:06:26;12.02;46.29
67354;SHT30;54238;52.278;21.056;2023-05-02T00:08:59;12.01;46.40
67354;SHT30;54238;52.278;21.056;2023-05-02T00:11:32;11.99;46.44
67354;SHT30;54238;52.278;21.056;2023-05-02T00:14:02;11.97;46.66
67354;SHT30;54238;52.278;21.056;2023-05-02T00:16:31;11.94;46.70
67354;SHT30;54238;52.278;21.056;2023-05-02T00:19:00;11.91;46.89
67354;SHT30;54238;52.278;21.056;2023-05-02T00:21:28;11.88;46.97
67354;SHT30;54238;52.278;21.056;2023-05-02T00:24:00;11.85;47.06
67354;SHT30;54238;52.278;21.056;2023-05-02T00:26:29;11.83;47.20
67354;SHT30;54238;52.278;21.056;2023-05-02T00:28:59;11.81;47.24
67354;SHT30;54238;52.278;21.056;2023-05-02T00:31:26;11.79;47.19
67354;SHT30;54238;52.278;21.056;2023-05-02T00:33:56;11.77;47.31
67354;SHT30;54238;52.278;21.056;2023-05-02T00:36:28;11.75;47.40
67354;SHT30;54238;52.278;21.056;2023-05-02T00:38:57;11.73;47.42
67354;SHT30;54238;52.278;21.056;2023-05-02T00:41:24;11.72;47.51
67354;SHT30;54238;52.278;21.056;2023-05-02T00:43:52;11.69;47.48
67354;SHT30;54238;52.278;21.056;2023-05-02T00:46:21;11.68;47.56
67354;SHT30;54238;52.278;21.056;2023-05-02T00:48:51;11.68;47.68
67354;SHT30;54238;52.278;21.056;2023-05-02T00:51:18;11.67;47.68
67354;SHT30;54238;52.278;21.056;2023-05-02T00:53:46;11.66;47.78
67354;SHT30;54238;52.278;21.056;2023-05-02T00:56:16;11.64;47.92
67354;SHT30;54238;52.278;21.056;2023-05-02T00:58:45;11.62;47.96
67354;SHT30;54238;52.278;21.056;2023-05-02T01:01:32;11.59;47.92
67354;SHT30;54238;52.278;21.056;2023-05-02T01:11:02;11.56;48.08
67354;SHT30;54238;52.278;21.056;2023-05-02T01:13:42;11.54;48.10
67354;SHT30;54238;52.278;21.056;2023-05-02T01:16:17;11.53;48.18
67354;SHT30;54238;52.278;21.056;2023-05-02T01:18:48;11.52;48.26
67354;SHT30;54238;52.278;21.056;2023-05-02T01:21:16;11.50;48.30
67354;SHT30;54238;52.278;21.056;2023-05-02T01:26:51;11.48;48.36
67354;SHT30;54238;52.278;21.056;2023-05-02T01:29:25;11.46;48.37
67354;SHT30;54238;52.278;21.056;2023-05-02T01:31:56;11.46;48.35
67354;SHT30;54238;52.278;21.056;2023-05-02T01:34:32;11.46;48.39
67354;SHT30;54238;52.278;21.056;2023-05-02T01:37:06;11.44;48.45
67354;SHT30;54238;52.278;21.056;2023-05-02T01:39:38;11.44;48.47
67354;SHT30;54238;52.278;21.056;2023-05-02T01:42:06;11.43;48.52
67354;SHT30;54238;52.278;21.056;2023-05-02T01:44:41;11.41;48.50
67354;SHT30;54238;52.278;21.056;2023-05-02T01:47:15;11.40;48.59
67354;SHT30;54238;52.278;21.056;2023-05-02T01:49:47;11.40;48.55
67354;SHT30;54238;52.278;21.056;2023-05-02T01:52:19;11.39;48.71
67354;SHT30;54238;52.278;21.056;2023-05-02T01:54:49;11.37;48.75
67354;SHT30;54238;52.278;21.056;2023-05-02T01:57:18;11.35;48.91
67354;SHT30;54238;52.278;21.056;2023-05-02T01:59:46;11.33;48.87
67354;SHT30;54238;52.278;21.056;2023-05-02T02:02:18;11.32;48.94
67354;SHT30;54238;52.278;21.056;2023-05-02T02:04:49;11.32;49.00
67354;SHT30;54238;52.278;21.056;2023-05-02T02:07:20;11.31;49.09
67354;SHT30;54238;52.278;21.056;2023-05-02T02:12:42;11.28;49.13
67354;SHT30;54238;52.278;21.056;2023-05-02T02:17:59;11.27;49.16
67354;SHT30;54238;52.278;21.056;2023-05-02T02:20:33;11.26;49.24
67354;SHT30;54238;52.278;21.056;2023-05-02T02:23:08;11.25;49.24
67354;SHT30;54238;52.278;21.056;2023-05-02T02:25:41;11.24;49.32
67354;SHT30;54238;52.278;21.056;2023-05-02T02:28:13;11.21;49.36
67354;SHT30;54238;52.278;21.056;2023-05-02T02:30:42;11.20;49.39
67354;SHT30;54238;52.278;21.056;2023-05-02T02:33:11;11.18;49.52
67354;SHT30;54238;52.278;21.056;2023-05-02T02:35:42;11.16;49.57
67354;SHT30;54238;52.278;21.056;2023-05-02T02:41:14;11.13;49.67
67354;SHT30;54238;52.278;21.056;2023-05-02T02:44:04;11.11;49.84
67354;SHT30;54238;52.278;21.056;2023-05-02T02:46:56;11.09;49.87
67354;SHT30;54238;52.278;21.056;2023-05-02T02:52:20;11.07;50.03
67354;SHT30;54238;52.278;21.056;2023-05-02T02:58:14;11.03;50.12
67354;SHT30;54238;52.278;21.056;2023-05-02T03:00:40;10.99;50.32
67354;SHT30;54238;52.278;21.056;2023-05-02T03:03:08;10.97;50.40
67354;SHT30;54238;52.278;21.056;2023-05-02T03:05:39;10.94;50.53
67354;SHT30;54238;52.278;21.056;2023-05-02T03:08:12;10.90;50.68
67354;SHT30;54238;52.278;21.056;2023-05-02T03:10:39;10.87;50.80
67354;SHT30;54238;52.278;21.056;2023-05-02T03:13:08;10.85;50.86
67354;SHT30;54238;52.278;21.056;2023-05-02T03:18:17;10.82;51.05
67354;SHT30;54238;52.278;21.056;2023-05-02T03:20:51;10.81;51.03
67354;SHT30;54238;52.278;21.056;2023-05-02T03:23:23;10.81;51.17
67354;SHT30;54238;52.278;21.056;2023-05-02T03:25:52;10.79;51.34
67354;SHT30;54238;52.278;21.056;2023-05-02T03:28:22;10.76;51.41
67354;SHT30;54238;52.278;21.056;2023-05-02T03:30:54;10.74;51.37
67354;SHT30;54238;52.278;21.056;2023-05-02T03:33:24;10.74;51.54
67354;SHT30;54238;52.278;21.056;2023-05-02T03:35:57;10.72;51.65
67354;SHT30;54238;52.278;21.056;2023-05-02T03:38:25;10.72;51.65
67354;SHT30;54238;52.278;21.056;2023-05-02T03:40:57;10.71;51.74
67354;SHT30;54238;52.278;21.056;2023-05-02T03:43:24;10.71;51.80
67354;SHT30;54238;52.278;21.056;2023-05-02T03:45:55;10.70;51.93
67354;SHT30;54238;52.278;21.056;2023-05-02T03:48:30;10.70;51.97
67354;SHT30;54238;52.278;21.056;2023-05-02T03:51:00;10.69;52.10
67354;SHT30;54238;52.278;21.056;2023-05-02T03:53:29;10.69;52.06
67354;SHT30;54238;52.278;21.056;2023-05-02T03:55:59;10.70;52.09
67354;SHT30;54238;52.278;21.056;2023-05-02T03:58:26;10.70;52.25
67354;SHT30;54238;52.278;21.056;2023-05-02T04:00:53;10.67;52.34
67354;SHT30;54238;52.278;21.056;2023-05-02T04:03:23;10.67;52.28
67354;SHT30;54238;52.278;21.056;2023-05-02T04:05:55;10.68;52.35
67354;SHT30;54238;52.278;21.056;2023-05-02T04:08:27;10.68;52.43
67354;SHT30;54238;52.278;21.056;2023-05-02T04:10:58;10.68;52.50
67354;SHT30;54238;52.278;21.056;2023-05-02T04:13:28;10.68;52.55
67354;SHT30;54238;52.278;21.056;2023-05-02T04:15:55;10.69;52.53
67354;SHT30;54238;52.278;21.056;2023-05-02T04:18:22;10.71;52.63
67354;SHT30;54238;52.278;21.056;2023-05-02T04:20:49;10.72;52.63
67354;SHT30;54238;52.278;21.056;2023-05-02T04:23:16;10.73;52.70
67354;SHT30;54238;52.278;21.056;2023-05-02T04:25:52;10.74;52.69
67354;SHT30;54238;52.278;21.056;2023-05-02T04:28:22;10.73;52.83
67354;SHT30;54238;52.278;21.056;2023-05-02T04:30:52;10.75;52.73
67354;SHT30;54238;52.278;21.056;2023-05-02T04:33:24;10.78;52.78
67354;SHT30;54238;52.278;21.056;2023-05-02T04:35:51;10.80;52.71
67354;SHT30;54238;52.278;21.056;2023-05-02T04:38:18;10.80;52.79
67354;SHT30;54238;52.278;21.056;2023-05-02T04:40:50;10.81;52.76
67354;SHT30;54238;52.278;21.056;2023-05-02T04:43:18;10.83;52.80
67354;SHT30;54238;52.278;21.056;2023-05-02T04:45:45;10.83;52.90
67354;SHT30;54238;52.278;21.056;2023-05-02T04:48:12;10.82;52.94
67354;SHT30;54238;52.278;21.056;2023-05-02T04:50:43;10.84;52.96
67354;SHT30;54238;52.278;21.056;2023-05-02T04:53:15;10.85;52.95
67354;SHT30;54238;52.278;21.056;2023-05-02T04:55:47;10.86;52.98
67354;SHT30;54238;52.278;21.056;2023-05-02T04:58:18;10.86;53.11
67354;SHT30;54238;52.278;21.056;2023-05-02T05:00:48;10.87;53.08
67354;SHT30;54238;52.278;21.056;2023-05-02T05:03:15;10.87;53.16
67354;SHT30;54238;52.278;21.056;2023-05-02T05:05:43;10.90;53.08
67354;SHT30;54238;52.278;21.056;2023-05-02T05:08:12;10.91;53.21
67354;SHT30;54238;52.278;21.056;2023-05-02T05:10:44;10.95;53.21
67354;SHT30;54238;52.278;21.056;2023-05-02T05:13:13;10.97;53.21
67354;SHT30;54238;52.278;21.056;2023-05-02T05:15:46;11.00;53.25
67354;SHT30;54238;52.278;21.056;2023-05-02T05:18:13;11.03;53.20
67354;SHT30;54238;52.278;21.056;2023-05-02T05:20:45;11.07;53.15
67354;SHT30;54238;52.278;21.056;2023-05-02T05:23:17;11.12;53.05
67354;SHT30;54238;52.278;21.056;2023-05-02T05:25:44;11.19;52.98
67354;SHT30;54238;52.278;21.056;2023-05-02T05:28:11;11.27;52.89
67354;SHT30;54238;52.278;21.056;2023-05-02T05:33:34;11.42;52.76
67354;SHT30;54238;52.278;21.056;2023-05-02T05:36:03;11.52;52.60
67354;SHT30;54238;52.278;21.056;2023-05-02T05:38:37;11.63;52.37
67354;SHT30;54238;52.278;21.056;2023-05-02T05:41:04;11.74;52.15
67354;SHT30;54238;52.278;21.056;2023-05-02T05:43:38;11.86;52.06
67354;SHT30;54238;52.278;21.056;2023-05-02T05:46:08;12.00;51.85
67354;SHT30;54238;52.278;21.056;2023-05-02T05:48:34;12.13;52.06
67354;SHT30;54238;52.278;21.056;2023-05-02T05:51:02;12.28;51.71
67354;SHT30;54238;52.278;21.056;2023-05-02T05:53:34;12.43;51.55
67354;SHT30;54238;52.278;21.056;2023-05-02T05:56:10;12.60;51.19
67354;SHT30;54238;52.278;21.056;2023-05-02T05:58:43;12.81;50.83
67354;SHT30;54238;52.278;21.056;2023-05-02T06:01:11;13.02;50.46
67354;SHT30;54238;52.278;21.056;2023-05-02T06:03:39;13.20;50.23
67354;SHT30;54238;52.278;21.056;2023-05-02T06:06:06;13.34;49.87
67354;SHT30;54238;52.278;21.056;2023-05-02T06:08:36;13.43;49.80
67354;SHT30;54238;52.278;21.056;2023-05-02T06:11:07;13.56;49.38
67354;SHT30;54238;52.278;21.056;2023-05-02T06:13:40;13.71;49.44
67354;SHT30;54238;52.278;21.056;2023-05-02T06:16:06;13.89;48.97
67354;SHT30;54238;52.278;21.056;2023-05-02T06:18:33;14.10;48.54
67354;SHT30;54238;52.278;21.056;2023-05-02T06:21:08;14.26;48.12
67354;SHT30;54238;52.278;21.056;2023-05-02T06:23:35;14.43;47.91
67354;SHT30;54238;52.278;21.056;2023-05-02T06:26:04;14.62;47.75
67354;SHT30;54238;52.278;21.056;2023-05-02T06:28:32;14.83;47.42
67354;SHT30;54238;52.278;21.056;2023-05-02T06:31:04;15.02;47.24
67354;SHT30;54238;52.278;21.056;2023-05-02T06:33:34;15.20;46.96
67354;SHT30;54238;52.278;21.056;2023-05-02T06:36:04;15.36;46.73
67354;SHT30;54238;52.278;21.056;2023-05-02T06:38:31;15.50;46.57
67354;SHT30;54238;52.278;21.056;2023-05-02T06:41:01;15.64;46.95
67354;SHT30;54238;52.278;21.056;2023-05-02T06:43:32;15.77;46.68
67354;SHT30;54238;52.278;21.056;2023-05-02T06:46:00;15.94;46.13
67354;SHT30;54238;52.278;21.056;2023-05-02T06:48:27;16.12;46.07
67354;SHT30;54238;52.278;21.056;2023-05-02T06:50:56;16.27;45.61
67354;SHT30;54238;52.278;21.056;2023-05-02T06:56:25;16.64;45.20
67354;SHT30;54238;52.278;21.056;2023-05-02T06:58:58;16.81;44.88
67354;SHT30;54238;52.278;21.056;2023-05-02T07:01:29;16.96;44.82
67354;SHT30;54238;52.278;21.056;2023-05-02T07:03:57;17.10;44.60
67354;SHT30;54238;52.278;21.056;2023-05-02T07:06:28;17.25;44.40
67354;SHT30;54238;52.278;21.056;2023-05-02T07:08:56;17.36;44.15
67354;SHT30;54238;52.278;21.056;2023-05-02T07:11:26;17.47;44.29
67354;SHT30;54238;52.278;21.056;2023-05-02T07:13:57;17.59;44.49
67354;SHT30;54238;52.278;21.056;2023-05-02T07:16:24;17.76;44.08
67354;SHT30;54238;52.278;21.056;2023-05-02T07:18:52;17.93;44.04
67354;SHT30;54238;52.278;21.056;2023-05-02T07:21:23;18.07;43.64
67354;SHT30;54238;52.278;21.056;2023-05-02T07:23:55;18.20;43.46
67354;SHT30;54238;52.278;21.056;2023-05-02T07:26:27;18.36;43.14
67354;SHT30;54238;52.278;21.056;2023-05-02T07:29:03;18.53;43.41
67354;SHT30;54238;52.278;21.056;2023-05-02T07:31:32;18.70;42.42
67354;SHT30;54238;52.278;21.056;2023-05-02T07:36:58;19.08;42.17
67354;SHT30;54238;52.278;21.056;2023-05-02T07:39:28;19.22;41.66
67354;SHT30;54238;52.278;21.056;2023-05-02T07:41:58;19.35;41.24
67354;SHT30;54238;52.278;21.056;2023-05-02T07:44:27;19.52;40.80
67354;SHT30;54238;52.278;21.056;2023-05-02T07:46:57;19.69;40.23
67354;SHT30;54238;52.278;21.056;2023-05-02T07:49:26;19.81;39.31
67354;SHT30;54238;52.278;21.056;2023-05-02T07:51:57;19.94;39.11
67354;SHT30;54238;52.278;21.056;2023-05-02T07:54:29;20.05;38.45
67354;SHT30;54238;52.278;21.056;2023-05-02T07:57:02;20.13;38.64
67354;SHT30;54238;52.278;21.056;2023-05-02T07:59:37;20.25;38.68
67354;SHT30;54238;52.278;21.056;2023-05-02T08:02:06;20.42;38.38
67354;SHT30;54238;52.278;21.056;2023-05-02T08:04:39;20.51;38.11
67354;SHT30;54238;52.278;21.056;2023-05-02T08:07:08;20.60;37.82
67354;SHT30;54238;52.278;21.056;2023-05-02T08:09:37;20.66;37.44
67354;SHT30;54238;52.278;21.056;2023-05-02T08:12:11;20.68;37.38
67354;SHT30;54238;52.278;21.056;2023-05-02T08:14:38;20.72;37.39
67354;SHT30;54238;52.278;21.056;2023-05-02T08:17:05;20.78;37.75
67354;SHT30;54238;52.278;21.056;2023-05-02T08:19:35;20.88;37.34
67354;SHT30;54238;52.278;21.056;2023-05-02T08:22:05;20.96;37.30
67354;SHT30;54238;52.278;21.056;2023-05-02T08:24:33;21.01;37.35
67354;SHT30;54238;52.278;21.056;2023-05-02T08:27:02;21.09;37.42
67354;SHT30;54238;52.278;21.056;2023-05-02T08:29:32;21.18;37.31
67354;SHT30;54238;52.278;21.056;2023-05-02T08:31:59;21.21;37.24
67354;SHT30;54238;52.278;21.056;2023-05-02T08:34:26;21.20;37.24
67354;SHT30;54238;52.278;21.056;2023-05-02T08:36:53;21.19;37.38
67354;SHT30;54238;52.278;21.056;2023-05-02T08:39:21;21.27;37.59
67354;SHT30;54238;52.278;21.056;2023-05-02T08:41:51;21.27;37.59
67354;SHT30;54238;52.278;21.056;2023-05-02T08:44:23;21.20;37.61
67354;SHT30;54238;52.278;21.056;2023-05-02T08:46:53;21.24;37.73
67354;SHT30;54238;52.278;21.056;2023-05-02T08:49:24;21.27;37.67
67354;SHT30;54238;52.278;21.056;2023-05-02T08:51:55;21.29;37.73
67354;SHT30;54238;52.278;21.056;2023-05-02T08:54:30;21.32;37.87
67354;SHT30;54238;52.278;21.056;2023-05-02T08:57:02;21.41;37.82
67354;SHT30;54238;52.278;21.056;2023-05-02T08:59:30;21.50;37.75
67354;SHT30;54238;52.278;21.056;2023-05-02T09:02:17;21.64;37.65
67354;SHT30;54238;52.278;21.056;2023-05-02T09:05:05;21.71;37.50
67354;SHT30;54238;52.278;21.056;2023-05-02T09:07:42;21.83;37.56
67354;SHT30;54238;52.278;21.056;2023-05-02T09:10:12;22.01;37.59
67354;SHT30;54238;52.278;21.056;2023-05-02T09:12:43;22.11;37.21
67354;SHT30;54238;52.278;21.056;2023-05-02T09:15:13;22.21;37.20
67354;SHT30;54238;52.278;21.056;2023-05-02T09:17:45;22.33;36.65
67354;SHT30;54238;52.278;21.056;2023-05-02T09:20:14;22.35;36.57
67354;SHT30;54238;52.278;21.056;2023-05-02T09:25:45;22.39;36.75
67354;SHT30;54238;52.278;21.056;2023-05-02T09:28:17;22.43;36.77
67354;SHT30;54238;52.278;21.056;2023-05-02T09:30:45;22.34;36.91
67354;SHT30;54238;52.278;21.056;2023-05-02T09:33:25;22.32;37.17
67354;SHT30;54238;52.278;21.056;2023-05-02T09:35:59;22.21;37.10
67354;SHT30;54238;52.278;21.056;2023-05-02T09:38:29;22.06;37.42
67354;SHT30;54238;52.278;21.056;2023-05-02T09:40:56;21.97;37.81
67354;SHT30;54238;52.278;21.056;2023-05-02T09:43:28;21.80;38.23
67354;SHT30;54238;52.278;21.056;2023-05-02T09:46:01;21.59;38.58
67354;SHT30;54238;52.278;21.056;2023-05-02T09:48:53;21.51;38.84
67354;SHT30;54238;52.278;21.056;2023-05-02T09:51:24;21.50;39.17
67354;SHT30;54238;52.278;21.056;2023-05-02T09:53:55;21.57;39.16
67354;SHT30;54238;52.278;21.056;2023-05-02T09:56:22;21.74;39.14
67354;SHT30;54238;52.278;21.056;2023-05-02T09:59:10;22.02;38.77
67354;SHT30;54238;52.278;21.056;2023-05-02T10:01:41;22.13;38.80
67354;SHT30;54238;52.278;21.056;2023-05-02T10:04:12;22.17;38.49
67354;SHT30;54238;52.278;21.056;2023-05-02T10:06:48;22.08;38.48
67354;SHT30;54238;52.278;21.056;2023-05-02T10:09:22;21.98;38.73
67354;SHT30;54238;52.278;21.056;2023-05-02T10:11:54;21.97;38.98
67354;SHT30;54238;52.278;21.056;2023-05-02T10:14:25;21.95;39.07
67354;SHT30;54238;52.278;21.056;2023-05-02T10:20:03;21.88;39.58
67354;SHT30;54238;52.278;21.056;2023-05-02T10:22:32;21.84;39.86
67354;SHT30;54238;52.278;21.056;2023-05-02T10:25:02;21.77;40.50
67354;SHT30;54238;52.278;21.056;2023-05-02T10:27:36;21.73;40.82
67354;SHT30;54238;52.278;21.056;2023-05-02T10:30:06;21.76;41.05
67354;SHT30;54238;52.278;21.056;2023-05-02T10:32:37;21.82;41.27
67354;SHT30;54238;52.278;21.056;2023-05-02T10:35:08;21.77;41.33
67354;SHT30;54238;52.278;21.056;2023-05-02T10:37:38;21.68;41.63
67354;SHT30;54238;52.278;21.056;2023-05-02T10:40:10;21.69;42.02
67354;SHT30;54238;52.278;21.056;2023-05-02T10:42:42;21.68;42.34
67354;SHT30;54238;52.278;21.056;2023-05-02T10:45:29;21.62;42.56
67354;SHT30;54238;52.278;21.056;2023-05-02T10:48:18;21.40;42.82
67354;SHT30;54238;52.278;21.056;2023-05-02T10:50:50;21.15;42.94
67354;SHT30;54238;52.278;21.056;2023-05-02T10:53:23;20.96;43.52
67354;SHT30;54238;52.278;21.056;2023-05-02T10:58:45;20.55;44.38
67354;SHT30;54238;52.278;21.056;2023-05-02T11:06:35;20.03;44.86
67354;SHT30;54238;52.278;21.056;2023-05-02T11:11:50;19.84;45.85
67354;SHT30;54238;52.278;21.056;2023-05-02T11:17:13;19.50;47.01
67354;SHT30;54238;52.278;21.056;2023-05-02T11:24:49;18.75;51.42
67354;SHT30;54238;52.278;21.056;2023-05-02T11:29:56;18.37;53.57
67354;SHT30;54238;52.278;21.056;2023-05-02T11:35:15;18.01;55.28
67354;SHT30;54238;52.278;21.056;2023-05-02T11:38:01;17.91;56.07
67354;SHT30;54238;52.278;21.056;2023-05-02T11:40:46;17.84;56.82
67354;SHT30;54238;52.278;21.056;2023-05-02T11:43:24;17.77;56.67
67354;SHT30;54238;52.278;21.056;2023-05-02T11:46:00;17.75;56.63
67354;SHT30;54238;52.278;21.056;2023-05-02T11:48:28;17.76;56.97
67354;SHT30;54238;52.278;21.056;2023-05-02T11:50:57;17.85;56.86
67354;SHT30;54238;52.278;21.056;2023-05-02T11:53:33;18.00;57.12
67354;SHT30;54238;52.278;21.056;2023-05-02T11:56:09;18.19;55.86
67354;SHT30;54238;52.278;21.056;2023-05-02T11:58:36;18.35;54.99
67354;SHT30;54238;52.278;21.056;2023-05-02T12:01:13;18.38;55.05
67354;SHT30;54238;52.278;21.056;2023-05-02T12:03:45;18.37;55.06
67354;SHT30;54238;52.278;21.056;2023-05-02T12:06:15;18.38;55.13
67354;SHT30;54238;52.278;21.056;2023-05-02T12:08:47;18.42;55.12
67354;SHT30;54238;52.278;21.056;2023-05-02T12:11:22;18.54;54.71
67354;SHT30;54238;52.278;21.056;2023-05-02T12:13:51;18.63;54.38
67354;SHT30;54238;52.278;21.056;2023-05-02T12:16:21;18.88;54.43
67354;SHT30;54238;52.278;21.056;2023-05-02T12:18:50;19.33;53.57
67354;SHT30;54238;52.278;21.056;2023-05-02T12:21:20;19.95;52.73
67354;SHT30;54238;52.278;21.056;2023-05-02T12:23:49;20.78;51.86
67354;SHT30;54238;52.278;21.056;2023-05-02T12:26:22;21.71;48.87
67354;SHT30;54238;52.278;21.056;2023-05-02T12:28:55;22.37;45.93
67354;SHT30;54238;52.278;21.056;2023-05-02T12:31:27;22.70;45.00
67354;SHT30;54238;52.278;21.056;2023-05-02T12:33:57;22.94;44.11
67354;SHT30;54238;52.278;21.056;2023-05-02T12:36:26;23.08;43.24
67354;SHT30;54238;52.278;21.056;2023-05-02T12:38:56;23.17;43.05
67354;SHT30;54238;52.278;21.056;2023-05-02T12:41:32;23.25;42.80
67354;SHT30;54238;52.278;21.056;2023-05-02T12:44:04;23.19;43.01
67354;SHT30;54238;52.278;21.056;2023-05-02T12:46:37;23.01;43.49
67354;SHT30;54238;52.278;21.056;2023-05-02T12:49:22;22.88;43.38
67354;SHT30;54238;52.278;21.056;2023-05-02T12:51:54;22.66;43.43
67354;SHT30;54238;52.278;21.056;2023-05-02T12:54:27;22.45;44.14
67354;SHT30;54238;52.278;21.056;2023-05-02T12:56:54;22.19;44.76
67354;SHT30;54238;52.278;21.056;2023-05-02T12:59:27;21.97;45.27
67354;SHT30;54238;52.278;21.056;2023-05-02T13:01:57;21.69;45.53
67354;SHT30;54238;52.278;21.056;2023-05-02T13:04:32;21.36;45.72
67354;SHT30;54238;52.278;21.056;2023-05-02T13:07:05;21.08;46.22
67354;SHT30;54238;52.278;21.056;2023-05-02T13:09:37;20.89;46.77
67354;SHT30;54238;52.278;21.056;2023-05-02T13:12:05;20.71;46.52
67354;SHT30;54238;52.278;21.056;2023-05-02T13:14:34;20.58;46.63
67354;SHT30;54238;52.278;21.056;2023-05-02T13:17:09;20.44;46.87
67354;SHT30;54238;52.278;21.056;2023-05-02T13:19:36;20.43;47.05
67354;SHT30;54238;52.278;21.056;2023-05-02T13:22:06;20.39;46.04
67354;SHT30;54238;52.278;21.056;2023-05-02T13:24:39;20.35;45.47
67354;SHT30;54238;52.278;21.056;2023-05-02T13:27:09;20.35;44.67
67354;SHT30;54238;52.278;21.056;2023-05-02T13:29:36;20.50;44.89
67354;SHT30;54238;52.278;21.056;2023-05-02T13:32:03;20.85;43.67
67354;SHT30;54238;52.278;21.056;2023-05-02T13:34:31;21.19;42.35
67354;SHT30;54238;52.278;21.056;2023-05-02T13:37:01;21.67;41.76
67354;SHT30;54238;52.278;21.056;2023-05-02T13:39:28;22.30;39.41
67354;SHT30;54238;52.278;21.056;2023-05-02T13:42:04;22.66;38.31
67354;SHT30;54238;52.278;21.056;2023-05-02T13:44:34;22.87;36.86
67354;SHT30;54238;52.278;21.056;2023-05-02T13:47:02;23.12;36.11
67354;SHT30;54238;52.278;21.056;2023-05-02T13:49:31;23.11;34.57
67354;SHT30;54238;52.278;21.056;2023-05-02T13:52:03;23.03;34.77
67354;SHT30;54238;52.278;21.056;2023-05-02T13:54:35;23.22;35.03
67354;SHT30;54238;52.278;21.056;2023-05-02T13:57:07;23.60;34.37
67354;SHT30;54238;52.278;21.056;2023-05-02T13:59:37;23.99;34.24
67354;SHT30;54238;52.278;21.056;2023-05-02T14:02:04;24.36;33.52
67354;SHT30;54238;52.278;21.056;2023-05-02T14:04:32;24.49;32.59
67354;SHT30;54238;52.278;21.056;2023-05-02T14:07:04;24.40;31.91
67354;SHT30;54238;52.278;21.056;2023-05-02T14:09:33;24.09;32.35
67354;SHT30;54238;52.278;21.056;2023-05-02T14:12:03;23.77;32.99
67354;SHT30;54238;52.278;21.056;2023-05-02T14:14:33;23.44;32.85
67354;SHT30;54238;52.278;21.056;2023-05-02T14:17:04;23.10;33.48
67354;SHT30;54238;52.278;21.056;2023-05-02T14:19:33;22.87;34.22
67354;SHT30;54238;52.278;21.056;2023-05-02T14:22:10;22.65;34.50
67354;SHT30;54238;52.278;21.056;2023-05-02T14:24:37;22.50;35.03
67354;SHT30;54238;52.278;21.056;2023-05-02T14:27:15;22.43;35.38
67354;SHT30;54238;52.278;21.056;2023-05-02T14:29:45;22.38;35.36
67354;SHT30;54238;52.278;21.056;2023-05-02T14:32:17;22.24;34.96
67354;SHT30;54238;52.278;21.056;2023-05-02T14:34:45;22.03;35.25
67354;SHT30;54238;52.278;21.056;2023-05-02T14:37:12;21.80;35.53
67354;SHT30;54238;52.278;21.056;2023-05-02T14:39:41;21.57;36.01
67354;SHT30;54238;52.278;21.056;2023-05-02T14:42:10;21.46;36.45
67354;SHT30;54238;52.278;21.056;2023-05-02T14:44:41;21.37;36.79
67354;SHT30;54238;52.278;21.056;2023-05-02T14:47:13;21.25;36.57
67354;SHT30;54238;52.278;21.056;2023-05-02T14:49:40;21.08;36.04
67354;SHT30;54238;52.278;21.056;2023-05-02T14:52:09;20.94;36.50
67354;SHT30;54238;52.278;21.056;2023-05-02T14:54:42;20.86;36.82
67354;SHT30;54238;52.278;21.056;2023-05-02T14:57:09;20.80;36.86
67354;SHT30;54238;52.278;21.056;2023-05-02T14:59:42;20.66;37.06
67354;SHT30;54238;52.278;21.056;2023-05-02T15:02:12;20.53;37.50
67354;SHT30;54238;52.278;21.056;2023-05-02T15:04:49;20.45;37.61
67354;SHT30;54238;52.278;21.056;2023-05-02T15:07:21;20.33;37.85
67354;SHT30;54238;52.278;21.056;2023-05-02T15:09:50;20.25;38.05
67354;SHT30;54238;52.278;21.056;2023-05-02T15:12:20;20.19;38.21
67354;SHT30;54238;52.278;21.056;2023-05-02T15:14:50;20.14;38.24
67354;SHT30;54238;52.278;21.056;2023-05-02T15:17:16;20.09;38.24
67354;SHT30;54238;52.278;21.056;2023-05-02T15:19:48;20.05;38.47
67354;SHT30;54238;52.278;21.056;2023-05-02T15:22:15;20.00;38.36
67354;SHT30;54238;52.278;21.056;2023-05-02T15:24:46;19.94;38.33
67354;SHT30;54238;52.278;21.056;2023-05-02T15:27:14;19.91;38.58
67354;SHT30;54238;52.278;21.056;2023-05-02T15:29:46;19.87;38.87
67354;SHT30;54238;52.278;21.056;2023-05-02T15:32:15;19.85;38.85
67354;SHT30;54238;52.278;21.056;2023-05-02T15:34:47;19.85;38.60
67354;SHT30;54238;52.278;21.056;2023-05-02T15:37:15;19.84;38.57
67354;SHT30;54238;52.278;21.056;2023-05-02T15:39:46;19.81;38.55
67354;SHT30;54238;52.278;21.056;2023-05-02T15:42:16;19.76;38.54
67354;SHT30;54238;52.278;21.056;2023-05-02T15:44:45;19.69;38.61
67354;SHT30;54238;52.278;21.056;2023-05-02T15:47:15;19.64;38.89
67354;SHT30;54238;52.278;21.056;2023-05-02T15:49:47;19.62;38.91
67354;SHT30;54238;52.278;21.056;2023-05-02T15:52:19;19.62;39.00
67354;SHT30;54238;52.278;21.056;2023-05-02T15:54:55;19.61;38.97
67354;SHT30;54238;52.278;21.056;2023-05-02T15:57:22;19.60;39.22
67354;SHT30;54238;52.278;21.056;2023-05-02T15:59:49;19.58;39.29
67354;SHT30;54238;52.278;21.056;2023-05-02T16:02:16;19.62;39.36
67354;SHT30;54238;52.278;21.056;2023-05-02T16:04:44;19.65;39.13
67354;SHT30;54238;52.278;21.056;2023-05-02T16:07:18;19.65;39.21
67354;SHT30;54238;52.278;21.056;2023-05-02T16:09:49;19.64;39.14
67354;SHT30;54238;52.278;21.056;2023-05-02T16:12:20;19.60;39.16
67354;SHT30;54238;52.278;21.056;2023-05-02T16:14:49;19.57;39.26
67354;SHT30;54238;52.278;21.056;2023-05-02T16:17:21;19.59;39.53
67354;SHT30;54238;52.278;21.056;2023-05-02T16:19:53;19.61;39.68
67354;SHT30;54238;52.278;21.056;2023-05-02T16:22:22;19.62;39.61
67354;SHT30;54238;52.278;21.056;2023-05-02T16:24:53;19.61;39.79
67354;SHT30;54238;52.278;21.056;2023-05-02T16:27:23;19.56;39.94
67354;SHT30;54238;52.278;21.056;2023-05-02T16:29:55;19.55;40.13
67354;SHT30;54238;52.278;21.056;2023-05-02T16:32:26;19.54;40.25
67354;SHT30;54238;52.278;21.056;2023-05-02T16:34:56;19.53;40.36
67354;SHT30;54238;52.278;21.056;2023-05-02T16:37:28;19.49;40.70
67354;SHT30;54238;52.278;21.056;2023-05-02T16:40:01;19.45;40.83
67354;SHT30;54238;52.278;21.056;2023-05-02T16:42:31;19.42;40.94
67354;SHT30;54238;52.278;21.056;2023-05-02T16:45:01;19.39;41.14